sensor_id;sensor_type;location;lat;lon;timestamp;P1;durP1;ratioP1;P2;durP2;ratioP2
59907;SDS011;61804;54.926;73.496;2023-03-23T00:02:11;4.18;;;2.97;;
59907;SDS011;61804;54.926;73.496;2023-03-23T00:04:38;3.90;;;3.42;;
59907;SDS011;61804;54.926;73.496;2023-03-23T00:07:05;7.20;;;2.10;;
59907;SDS011;61804;54.926;73.496;2023-03-23T00:09:33;5.35;;;3.10;;
59907;SDS011;61804;54.926;73.496;2023-03-23T00:12:01;3.88;;;2.60;;
59907;SDS011;61804;54.926;73.496;2023-03-23T00:14:32;3.70;;;2.17;;
59907;SDS011;61804;54.926;73.496;2023-03-23T00:17:10;4.47;;;2.22;;
59907;SDS011;61804;54.926;73.496;2023-03-23T00:19:41;4.22;;;2.70;;
59907;SDS011;61804;54.926;73.496;2023-03-23T00:22:15;7.70;;;2.42;;
59907;SDS011;61804;54.926;73.496;2023-03-23T00:24:43;4.63;;;3.08;;
59907;SDS011;61804;54.926;73.496;2023-03-23T00:27:11;4.93;;;3.22;;
59907;SDS011;61804;54.926;73.496;2023-03-23T00:29:43;4.30;;;3.58;;
59907;SDS011;61804;54.926;73.496;2023-03-23T00:32:18;3.60;;;1.92;;
59907;SDS011;61804;54.926;73.496;2023-03-23T00:34:47;4.47;;;1.98;;
59907;SDS011;61804;54.926;73.496;2023-03-23T00:37:16;7.00;;;2.60;;
59907;SDS011;61804;54.926;73.496;2023-03-23T00:39:44;6.45;;;4.47;;
59907;SDS011;61804;54.926;73.496;2023-03-23T00:42:13;28.63;;;17.00;;
59907;SDS011;61804;54.926;73.496;2023-03-23T00:44:41;12.98;;;7.88;;
59907;SDS011;61804;54.926;73.496;2023-03-23T00:47:11;19.23;;;11.38;;
59907;SDS011;61804;54.926;73.496;2023-03-23T00:49:38;35.00;;;21.20;;
59907;SDS011;61804;54.926;73.496;2023-03-23T00:52:07;9.85;;;4.88;;
59907;SDS011;61804;54.926;73.496;2023-03-23T00:54:35;22.55;;;10.10;;
59907;SDS011;61804;54.926;73.496;2023-03-23T00:57:04;5.20;;;3.53;;
59907;SDS011;61804;54.926;73.496;2023-03-23T00:59:33;4.43;;;3.65;;
59907;SDS011;61804;54.926;73.496;2023-03-23T01:02:01;8.73;;;2.15;;
59907;SDS011;61804;54.926;73.496;2023-03-23T01:04:29;2.70;;;1.95;;
59907;SDS011;61804;54.926;73.496;2023-03-23T01:06:58;6.47;;;3.25;;
59907;SDS011;61804;54.926;73.496;2023-03-23T01:09:27;9.73;;;2.45;;
59907;SDS011;61804;54.926;73.496;2023-03-23T01:11:55;4.15;;;3.53;;
59907;SDS011;61804;54.926;73.496;2023-03-23T01:14:22;4.78;;;3.92;;
59907;SDS011;61804;54.926;73.496;2023-03-23T01:16:50;5.80;;;3.45;;
59907;SDS011;61804;54.926;73.496;2023-03-23T01:19:18;2.45;;;1.88;;
59907;SDS011;61804;54.926;73.496;2023-03-23T01:21:45;4.63;;;2.80;;
59907;SDS011;61804;54.926;73.496;2023-03-23T01:24:13;6.32;;;4.38;;
59907;SDS011;61804;54.926;73.496;2023-03-23T01:26:42;5.22;;;2.67;;
59907;SDS011;61804;54.926;73.496;2023-03-23T01:29:09;5.07;;;2.88;;
59907;SDS011;61804;54.926;73.496;2023-03-23T01:31:37;2.65;;;2.25;;
59907;SDS011;61804;54.926;73.496;2023-03-23T01:34:07;3.00;;;2.63;;
59907;SDS011;61804;54.926;73.496;2023-03-23T01:36:36;1.73;;;1.63;;
59907;SDS011;61804;54.926;73.496;2023-03-23T01:39:04;3.60;;;2.70;;
59907;SDS011;61804;54.926;73.496;2023-03-23T01:41:33;5.38;;;3.03;;
59907;SDS011;61804;54.926;73.496;2023-03-23T01:46:52;2.80;;;1.88;;
59907;SDS011;61804;54.926;73.496;2023-03-23T01:49:22;3.97;;;1.65;;
59907;SDS011;61804;54.926;73.496;2023-03-23T01:52:04;6.25;;;3.72;;
59907;SDS011;61804;54.926;73.496;2023-03-23T01:54:34;5.03;;;4.25;;
59907;SDS011;61804;54.926;73.496;2023-03-23T01:57:05;9.70;;;3.00;;
59907;SDS011;61804;54.926;73.496;2023-03-23T01:59:35;4.53;;;3.78;;
59907;SDS011;61804;54.926;73.496;2023-03-23T02:02:22;6.15;;;2.83;;
59907;SDS011;61804;54.926;73.496;2023-03-23T02:04:52;3.60;;;3.13;;
59907;SDS011;61804;54.926;73.496;2023-03-23T02:07:23;3.80;;;2.50;;
59907;SDS011;61804;54.926;73.496;2023-03-23T02:09:52;7.10;;;2.67;;
59907;SDS011;61804;54.926;73.496;2023-03-23T02:12:20;3.47;;;1.75;;
59907;SDS011;61804;54.926;73.496;2023-03-23T02:14:49;6.07;;;2.28;;
59907;SDS011;61804;54.926;73.496;2023-03-23T02:25:52;10.32;;;6.32;;
59907;SDS011;61804;54.926;73.496;2023-03-23T02:30:47;4.43;;;2.40;;
59907;SDS011;61804;54.926;73.496;2023-03-23T02:36:04;4.97;;;3.83;;
59907;SDS011;61804;54.926;73.496;2023-03-23T02:38:38;5.60;;;3.42;;
59907;SDS011;61804;54.926;73.496;2023-03-23T02:41:10;12.20;;;4.43;;
59907;SDS011;61804;54.926;73.496;2023-03-23T02:43:42;7.97;;;4.22;;
59907;SDS011;61804;54.926;73.496;2023-03-23T02:46:12;9.90;;;4.38;;
59907;SDS011;61804;54.926;73.496;2023-03-23T02:48:41;7.00;;;4.15;;
59907;SDS011;61804;54.926;73.496;2023-03-23T02:51:10;4.10;;;2.17;;
59907;SDS011;61804;54.926;73.496;2023-03-23T02:53:42;5.75;;;2.38;;
59907;SDS011;61804;54.926;73.496;2023-03-23T02:56:11;2.78;;;2.47;;
59907;SDS011;61804;54.926;73.496;2023-03-23T02:58:42;5.50;;;3.42;;
59907;SDS011;61804;54.926;73.496;2023-03-23T03:04:12;4.35;;;2.33;;
59907;SDS011;61804;54.926;73.496;2023-03-23T03:06:47;7.82;;;5.45;;
59907;SDS011;61804;54.926;73.496;2023-03-23T03:09:55;7.50;;;3.65;;
59907;SDS011;61804;54.926;73.496;2023-03-23T03:12:35;5.60;;;4.25;;
59907;SDS011;61804;54.926;73.496;2023-03-23T03:17:52;6.18;;;3.83;;
59907;SDS011;61804;54.926;73.496;2023-03-23T03:20:24;7.90;;;7.10;;
59907;SDS011;61804;54.926;73.496;2023-03-23T03:22:58;8.88;;;5.32;;
59907;SDS011;61804;54.926;73.496;2023-03-23T03:25:27;11.27;;;6.97;;
59907;SDS011;61804;54.926;73.496;2023-03-23T03:27:57;8.80;;;4.60;;
59907;SDS011;61804;54.926;73.496;2023-03-23T03:30:43;4.80;;;3.42;;
59907;SDS011;61804;54.926;73.496;2023-03-23T03:33:15;11.68;;;7.25;;
59907;SDS011;61804;54.926;73.496;2023-03-23T03:35:45;5.30;;;4.47;;
59907;SDS011;61804;54.926;73.496;2023-03-23T03:38:18;5.03;;;3.50;;
59907;SDS011;61804;54.926;73.496;2023-03-23T03:40:45;9.50;;;4.38;;
59907;SDS011;61804;54.926;73.496;2023-03-23T03:43:12;4.38;;;3.40;;
59907;SDS011;61804;54.926;73.496;2023-03-23T03:45:40;3.75;;;3.28;;
59907;SDS011;61804;54.926;73.496;2023-03-23T03:48:08;6.45;;;3.38;;
59907;SDS011;61804;54.926;73.496;2023-03-23T03:50:37;4.38;;;3.75;;
59907;SDS011;61804;54.926;73.496;2023-03-23T03:53:05;5.40;;;3.50;;
59907;SDS011;61804;54.926;73.496;2023-03-23T03:55:37;7.25;;;2.78;;
59907;SDS011;61804;54.926;73.496;2023-03-23T03:58:10;3.40;;;2.47;;
59907;SDS011;61804;54.926;73.496;2023-03-23T04:01:01;3.42;;;2.75;;
59907;SDS011;61804;54.926;73.496;2023-03-23T04:03:33;3.67;;;2.67;;
59907;SDS011;61804;54.926;73.496;2023-03-23T04:06:20;6.55;;;4.55;;
59907;SDS011;61804;54.926;73.496;2023-03-23T04:08:53;9.32;;;7.53;;
59907;SDS011;61804;54.926;73.496;2023-03-23T04:11:23;4.88;;;4.40;;
59907;SDS011;61804;54.926;73.496;2023-03-23T04:13:51;6.80;;;4.78;;
59907;SDS011;61804;54.926;73.496;2023-03-23T04:16:26;4.67;;;3.73;;
59907;SDS011;61804;54.926;73.496;2023-03-23T04:18:58;3.33;;;2.50;;
59907;SDS011;61804;54.926;73.496;2023-03-23T04:21:27;5.10;;;3.47;;
59907;SDS011;61804;54.926;73.496;2023-03-23T04:24:06;3.83;;;3.00;;
59907;SDS011;61804;54.926;73.496;2023-03-23T04:26:36;3.42;;;2.78;;
59907;SDS011;61804;54.926;73.496;2023-03-23T04:29:14;2.97;;;2.70;;
59907;SDS011;61804;54.926;73.496;2023-03-23T04:31:51;10.75;;;5.07;;
59907;SDS011;61804;54.926;73.496;2023-03-23T04:34:46;6.00;;;3.70;;
59907;SDS011;61804;54.926;73.496;2023-03-23T04:37:19;9.95;;;4.13;;
59907;SDS011;61804;54.926;73.496;2023-03-23T04:39:47;6.47;;;3.13;;
59907;SDS011;61804;54.926;73.496;2023-03-23T04:42:15;3.03;;;2.25;;
59907;SDS011;61804;54.926;73.496;2023-03-23T04:45:03;6.43;;;3.35;;
59907;SDS011;61804;54.926;73.496;2023-03-23T04:47:36;8.98;;;6.13;;
59907;SDS011;61804;54.926;73.496;2023-03-23T04:50:23;13.77;;;6.38;;
59907;SDS011;61804;54.926;73.496;2023-03-23T04:52:52;8.57;;;6.97;;
59907;SDS011;61804;54.926;73.496;2023-03-23T04:55:34;14.77;;;10.55;;
59907;SDS011;61804;54.926;73.496;2023-03-23T04:58:08;9.50;;;7.57;;
59907;SDS011;61804;54.926;73.496;2023-03-23T05:00:51;5.15;;;3.38;;
59907;SDS011;61804;54.926;73.496;2023-03-23T05:03:21;4.50;;;3.70;;
59907;SDS011;61804;54.926;73.496;2023-03-23T05:06:03;6.72;;;3.28;;
59907;SDS011;61804;54.926;73.496;2023-03-23T05:08:31;6.30;;;3.78;;
59907;SDS011;61804;54.926;73.496;2023-03-23T05:11:00;5.85;;;3.35;;
59907;SDS011;61804;54.926;73.496;2023-03-23T05:13:36;7.03;;;4.93;;
59907;SDS011;61804;54.926;73.496;2023-03-23T05:16:05;6.82;;;4.95;;
59907;SDS011;61804;54.926;73.496;2023-03-23T05:18:35;6.03;;;4.40;;
59907;SDS011;61804;54.926;73.496;2023-03-23T05:21:05;8.10;;;4.70;;
59907;SDS011;61804;54.926;73.496;2023-03-23T05:23:37;10.02;;;4.00;;
59907;SDS011;61804;54.926;73.496;2023-03-23T05:26:15;6.43;;;4.25;;
59907;SDS011;61804;54.926;73.496;2023-03-23T05:28:43;10.75;;;7.35;;
59907;SDS011;61804;54.926;73.496;2023-03-23T05:31:29;8.77;;;7.00;;
59907;SDS011;61804;54.926;73.496;2023-03-23T05:34:07;17.27;;;12.27;;
59907;SDS011;61804;54.926;73.496;2023-03-23T05:36:45;20.95;;;14.48;;
59907;SDS011;61804;54.926;73.496;2023-03-23T05:39:34;11.38;;;7.75;;
59907;SDS011;61804;54.926;73.496;2023-03-23T05:42:22;11.73;;;7.32;;
59907;SDS011;61804;54.926;73.496;2023-03-23T05:45:08;8.10;;;7.18;;
59907;SDS011;61804;54.926;73.496;2023-03-23T05:47:40;15.38;;;8.05;;
59907;SDS011;61804;54.926;73.496;2023-03-23T05:50:23;13.73;;;6.78;;
59907;SDS011;61804;54.926;73.496;2023-03-23T05:52:52;14.82;;;7.85;;
59907;SDS011;61804;54.926;73.496;2023-03-23T05:55:21;10.88;;;7.53;;
59907;SDS011;61804;54.926;73.496;2023-03-23T05:58:00;7.72;;;5.60;;
59907;SDS011;61804;54.926;73.496;2023-03-23T06:00:32;6.80;;;6.10;;
59907;SDS011;61804;54.926;73.496;2023-03-23T06:03:15;8.43;;;7.63;;
59907;SDS011;61804;54.926;73.496;2023-03-23T06:05:50;12.02;;;8.20;;
59907;SDS011;61804;54.926;73.496;2023-03-23T06:08:21;9.73;;;7.63;;
59907;SDS011;61804;54.926;73.496;2023-03-23T06:10:49;8.70;;;6.28;;
59907;SDS011;61804;54.926;73.496;2023-03-23T06:13:24;11.40;;;7.03;;
59907;SDS011;61804;54.926;73.496;2023-03-23T06:15:55;10.57;;;9.57;;
59907;SDS011;61804;54.926;73.496;2023-03-23T06:18:46;15.27;;;12.48;;
59907;SDS011;61804;54.926;73.496;2023-03-23T06:21:24;23.65;;;17.80;;
59907;SDS011;61804;54.926;73.496;2023-03-23T06:24:12;10.50;;;9.20;;
59907;SDS011;61804;54.926;73.496;2023-03-23T06:26:49;11.25;;;8.18;;
59907;SDS011;61804;54.926;73.496;2023-03-23T06:29:26;11.95;;;8.35;;
59907;SDS011;61804;54.926;73.496;2023-03-23T06:31:56;10.80;;;7.15;;
59907;SDS011;61804;54.926;73.496;2023-03-23T06:34:28;13.52;;;8.00;;
59907;SDS011;61804;54.926;73.496;2023-03-23T06:37:32;8.60;;;7.40;;
59907;SDS011;61804;54.926;73.496;2023-03-23T06:40:21;6.53;;;5.75;;
59907;SDS011;61804;54.926;73.496;2023-03-23T06:42:56;7.80;;;5.90;;
59907;SDS011;61804;54.926;73.496;2023-03-23T06:45:44;6.78;;;4.43;;
59907;SDS011;61804;54.926;73.496;2023-03-23T06:48:32;10.43;;;6.18;;
59907;SDS011;61804;54.926;73.496;2023-03-23T06:51:01;8.30;;;5.65;;
59907;SDS011;61804;54.926;73.496;2023-03-23T06:53:31;6.13;;;4.47;;
59907;SDS011;61804;54.926;73.496;2023-03-23T06:56:00;6.82;;;4.93;;
59907;SDS011;61804;54.926;73.496;2023-03-23T06:58:30;10.80;;;4.82;;
59907;SDS011;61804;54.926;73.496;2023-03-23T07:00:58;7.35;;;6.05;;
59907;SDS011;61804;54.926;73.496;2023-03-23T07:03:44;6.30;;;4.60;;
59907;SDS011;61804;54.926;73.496;2023-03-23T07:06:16;3.78;;;3.35;;
59907;SDS011;61804;54.926;73.496;2023-03-23T07:08:50;14.45;;;7.20;;
59907;SDS011;61804;54.926;73.496;2023-03-23T07:11:22;10.70;;;4.93;;
59907;SDS011;61804;54.926;73.496;2023-03-23T07:13:50;7.20;;;3.78;;
59907;SDS011;61804;54.926;73.496;2023-03-23T07:16:19;7.78;;;5.32;;
59907;SDS011;61804;54.926;73.496;2023-03-23T07:18:54;4.47;;;4.07;;
59907;SDS011;61804;54.926;73.496;2023-03-23T07:21:22;4.45;;;3.33;;
59907;SDS011;61804;54.926;73.496;2023-03-23T07:23:52;5.82;;;3.78;;
59907;SDS011;61804;54.926;73.496;2023-03-23T07:26:51;4.00;;;3.47;;
59907;SDS011;61804;54.926;73.496;2023-03-23T07:29:19;3.65;;;3.35;;
59907;SDS011;61804;54.926;73.496;2023-03-23T07:31:51;6.68;;;4.13;;
59907;SDS011;61804;54.926;73.496;2023-03-23T07:34:28;7.80;;;6.45;;
59907;SDS011;61804;54.926;73.496;2023-03-23T07:37:11;7.22;;;4.97;;
59907;SDS011;61804;54.926;73.496;2023-03-23T07:39:42;6.53;;;3.92;;
59907;SDS011;61804;54.926;73.496;2023-03-23T07:42:11;4.80;;;3.70;;
59907;SDS011;61804;54.926;73.496;2023-03-23T07:44:47;8.85;;;5.88;;
59907;SDS011;61804;54.926;73.496;2023-03-23T07:47:25;6.18;;;5.25;;
59907;SDS011;61804;54.926;73.496;2023-03-23T07:49:55;10.63;;;7.72;;
59907;SDS011;61804;54.926;73.496;2023-03-23T07:52:39;4.63;;;3.03;;
59907;SDS011;61804;54.926;73.496;2023-03-23T07:55:08;4.10;;;3.55;;
59907;SDS011;61804;54.926;73.496;2023-03-23T07:58:18;3.88;;;3.08;;
59907;SDS011;61804;54.926;73.496;2023-03-23T08:00:53;4.43;;;3.15;;
59907;SDS011;61804;54.926;73.496;2023-03-23T08:03:34;2.50;;;1.85;;
59907;SDS011;61804;54.926;73.496;2023-03-23T08:06:37;6.50;;;3.53;;
59907;SDS011;61804;54.926;73.496;2023-03-23T08:09:38;8.68;;;2.88;;
59907;SDS011;61804;54.926;73.496;2023-03-23T08:12:25;3.78;;;3.42;;
59907;SDS011;61804;54.926;73.496;2023-03-23T08:15:10;3.38;;;2.17;;
59907;SDS011;61804;54.926;73.496;2023-03-23T08:18:07;3.85;;;3.47;;
59907;SDS011;61804;54.926;73.496;2023-03-23T08:21:01;4.30;;;2.65;;
59907;SDS011;61804;54.926;73.496;2023-03-23T08:24:00;2.90;;;2.60;;
59907;SDS011;61804;54.926;73.496;2023-03-23T08:26:29;2.92;;;2.33;;
59907;SDS011;61804;54.926;73.496;2023-03-23T08:29:13;4.88;;;3.75;;
59907;SDS011;61804;54.926;73.496;2023-03-23T08:32:10;3.38;;;2.67;;
59907;SDS011;61804;54.926;73.496;2023-03-23T08:34:52;8.50;;;2.65;;
59907;SDS011;61804;54.926;73.496;2023-03-23T08:37:38;2.63;;;2.40;;
59907;SDS011;61804;54.926;73.496;2023-03-23T08:40:12;4.38;;;3.35;;
59907;SDS011;61804;54.926;73.496;2023-03-23T08:42:53;9.32;;;3.65;;
59907;SDS011;61804;54.926;73.496;2023-03-23T08:45:28;8.93;;;3.67;;
59907;SDS011;61804;54.926;73.496;2023-03-23T08:48:20;2.88;;;2.67;;
59907;SDS011;61804;54.926;73.496;2023-03-23T08:51:18;2.13;;;1.98;;
59907;SDS011;61804;54.926;73.496;2023-03-23T08:54:08;2.22;;;1.50;;
59907;SDS011;61804;54.926;73.496;2023-03-23T08:57:01;1.85;;;1.58;;
59907;SDS011;61804;54.926;73.496;2023-03-23T09:00:05;2.33;;;1.55;;
59907;SDS011;61804;54.926;73.496;2023-03-23T09:03:00;4.97;;;1.95;;
59907;SDS011;61804;54.926;73.496;2023-03-23T09:05:39;1.48;;;1.00;;
59907;SDS011;61804;54.926;73.496;2023-03-23T09:08:24;3.75;;;1.67;;
59907;SDS011;61804;54.926;73.496;2023-03-23T09:11:03;2.00;;;1.70;;
59907;SDS011;61804;54.926;73.496;2023-03-23T09:13:31;1.33;;;1.10;;
59907;SDS011;61804;54.926;73.496;2023-03-23T09:15:58;1.20;;;1.10;;
59907;SDS011;61804;54.926;73.496;2023-03-23T09:18:26;1.17;;;0.80;;
59907;SDS011;61804;54.926;73.496;2023-03-23T09:20:54;0.95;;;0.95;;
59907;SDS011;61804;54.926;73.496;2023-03-23T09:23:22;2.47;;;0.73;;
59907;SDS011;61804;54.926;73.496;2023-03-23T09:25:50;1.13;;;1.02;;
59907;SDS011;61804;54.926;73.496;2023-03-23T09:28:19;2.50;;;1.00;;
59907;SDS011;61804;54.926;73.496;2023-03-23T09:30:46;1.25;;;1.15;;
59907;SDS011;61804;54.926;73.496;2023-03-23T09:33:15;1.40;;;1.10;;
59907;SDS011;61804;54.926;73.496;2023-03-23T09:35:46;1.48;;;1.35;;
59907;SDS011;61804;54.926;73.496;2023-03-23T09:38:17;1.02;;;0.85;;
59907;SDS011;61804;54.926;73.496;2023-03-23T09:40:47;13.63;;;3.15;;
59907;SDS011;61804;54.926;73.496;2023-03-23T09:48:50;0.45;;;0.45;;
59907;SDS011;61804;54.926;73.496;2023-03-23T09:54:12;1.33;;;1.23;;
59907;SDS011;61804;54.926;73.496;2023-03-23T09:56:40;2.40;;;1.45;;
59907;SDS011;61804;54.926;73.496;2023-03-23T09:59:12;2.10;;;0.98;;
59907;SDS011;61804;54.926;73.496;2023-03-23T10:01:45;0.50;;;0.50;;
59907;SDS011;61804;54.926;73.496;2023-03-23T10:07:13;0.63;;;0.52;;
59907;SDS011;61804;54.926;73.496;2023-03-23T10:09:43;0.75;;;0.60;;
59907;SDS011;61804;54.926;73.496;2023-03-23T10:17:17;1.15;;;0.93;;
59907;SDS011;61804;54.926;73.496;2023-03-23T10:19:47;2.13;;;1.02;;
59907;SDS011;61804;54.926;73.496;2023-03-23T10:22:18;1.33;;;1.20;;
59907;SDS011;61804;54.926;73.496;2023-03-23T10:25:22;8.02;;;1.88;;
59907;SDS011;61804;54.926;73.496;2023-03-23T10:28:17;1.15;;;0.65;;
59907;SDS011;61804;54.926;73.496;2023-03-23T10:30:43;0.57;;;0.57;;
59907;SDS011;61804;54.926;73.496;2023-03-23T10:35:54;26.25;;;1.40;;
59907;SDS011;61804;54.926;73.496;2023-03-23T10:38:29;1.33;;;1.23;;
59907;SDS011;61804;54.926;73.496;2023-03-23T10:41:00;1.67;;;0.90;;
59907;SDS011;61804;54.926;73.496;2023-03-23T10:43:29;1.20;;;0.63;;
59907;SDS011;61804;54.926;73.496;2023-03-23T10:46:06;5.35;;;1.15;;
59907;SDS011;61804;54.926;73.496;2023-03-23T10:48:37;0.55;;;0.55;;
59907;SDS011;61804;54.926;73.496;2023-03-23T10:51:09;0.60;;;0.40;;
59907;SDS011;61804;54.926;73.496;2023-03-23T10:53:44;0.90;;;0.45;;
59907;SDS011;61804;54.926;73.496;2023-03-23T10:56:20;0.30;;;0.30;;
59907;SDS011;61804;54.926;73.496;2023-03-23T10:58:52;0.50;;;0.50;;
59907;SDS011;61804;54.926;73.496;2023-03-23T11:01:27;1.38;;;1.27;;
59907;SDS011;61804;54.926;73.496;2023-03-23T11:03:56;0.95;;;0.60;;
59907;SDS011;61804;54.926;73.496;2023-03-23T11:06:24;1.48;;;1.10;;
59907;SDS011;61804;54.926;73.496;2023-03-23T11:09:00;3.35;;;1.83;;
59907;SDS011;61804;54.926;73.496;2023-03-23T11:11:29;1.13;;;1.08;;
59907;SDS011;61804;54.926;73.496;2023-03-23T11:13:58;1.75;;;1.40;;
59907;SDS011;61804;54.926;73.496;2023-03-23T11:16:28;0.80;;;0.80;;
59907;SDS011;61804;54.926;73.496;2023-03-23T11:18:58;5.82;;;3.25;;
59907;SDS011;61804;54.926;73.496;2023-03-23T11:21:26;0.57;;;0.57;;
59907;SDS011;61804;54.926;73.496;2023-03-23T11:23:58;1.75;;;0.88;;
59907;SDS011;61804;54.926;73.496;2023-03-23T11:31:44;1.10;;;1.05;;
59907;SDS011;61804;54.926;73.496;2023-03-23T11:36:43;1.88;;;1.77;;
59907;SDS011;61804;54.926;73.496;2023-03-23T11:39:22;1.70;;;1.60;;
59907;SDS011;61804;54.926;73.496;2023-03-23T11:41:57;0.82;;;0.70;;
59907;SDS011;61804;54.926;73.496;2023-03-23T11:44:31;0.98;;;0.82;;
59907;SDS011;61804;54.926;73.496;2023-03-23T11:52:32;4.22;;;2.60;;
59907;SDS011;61804;54.926;73.496;2023-03-23T11:55:25;1.23;;;1.13;;
59907;SDS011;61804;54.926;73.496;2023-03-23T11:57:55;2.60;;;2.03;;
59907;SDS011;61804;54.926;73.496;2023-03-23T12:00:27;7.70;;;1.90;;
59907;SDS011;61804;54.926;73.496;2023-03-23T12:03:09;5.45;;;2.00;;
59907;SDS011;61804;54.926;73.496;2023-03-23T12:08:38;3.78;;;1.30;;
59907;SDS011;61804;54.926;73.496;2023-03-23T12:13:42;5.93;;;1.35;;
59907;SDS011;61804;54.926;73.496;2023-03-23T12:19:13;2.03;;;1.27;;
59907;SDS011;61804;54.926;73.496;2023-03-23T12:24:36;1.52;;;1.42;;
59907;SDS011;61804;54.926;73.496;2023-03-23T12:27:13;2.58;;;2.30;;
59907;SDS011;61804;54.926;73.496;2023-03-23T12:34:42;2.15;;;2.03;;
59907;SDS011;61804;54.926;73.496;2023-03-23T12:40:03;4.90;;;3.28;;
59907;SDS011;61804;54.926;73.496;2023-03-23T12:45:07;5.35;;;2.13;;
59907;SDS011;61804;54.926;73.496;2023-03-23T12:47:45;2.90;;;2.13;;
59907;SDS011;61804;54.926;73.496;2023-03-23T12:50:18;7.03;;;4.40;;
59907;SDS011;61804;54.926;73.496;2023-03-23T12:52:52;8.05;;;3.45;;
59907;SDS011;61804;54.926;73.496;2023-03-23T12:57:52;10.32;;;7.78;;
59907;SDS011;61804;54.926;73.496;2023-03-23T13:01:08;13.20;;;9.73;;
59907;SDS011;61804;54.926;73.496;2023-03-23T13:06:08;16.60;;;14.35;;
59907;SDS011;61804;54.926;73.496;2023-03-23T13:09:03;14.73;;;12.88;;
59907;SDS011;61804;54.926;73.496;2023-03-23T13:11:35;16.92;;;10.10;;
59907;SDS011;61804;54.926;73.496;2023-03-23T13:14:12;12.18;;;9.90;;
59907;SDS011;61804;54.926;73.496;2023-03-23T13:17:44;9.45;;;8.43;;
59907;SDS011;61804;54.926;73.496;2023-03-23T13:20:04;13.52;;;10.38;;
59907;SDS011;61804;54.926;73.496;2023-03-23T13:22:46;18.33;;;12.48;;
59907;SDS011;61804;54.926;73.496;2023-03-23T13:25:19;24.83;;;15.57;;
59907;SDS011;61804;54.926;73.496;2023-03-23T13:27:58;30.95;;;24.55;;
59907;SDS011;61804;54.926;73.496;2023-03-23T13:30:37;35.13;;;25.60;;
59907;SDS011;61804;54.926;73.496;2023-03-23T13:33:14;29.33;;;20.63;;
59907;SDS011;61804;54.926;73.496;2023-03-23T13:35:42;27.75;;;15.75;;
59907;SDS011;61804;54.926;73.496;2023-03-23T13:38:28;29.05;;;19.08;;
59907;SDS011;61804;54.926;73.496;2023-03-23T13:40:56;24.15;;;18.15;;
59907;SDS011;61804;54.926;73.496;2023-03-23T13:43:28;28.88;;;20.80;;
59907;SDS011;61804;54.926;73.496;2023-03-23T13:46:05;35.28;;;26.88;;
59907;SDS011;61804;54.926;73.496;2023-03-23T13:48:40;38.47;;;27.88;;
59907;SDS011;61804;54.926;73.496;2023-03-23T13:53:43;23.23;;;19.02;;
59907;SDS011;61804;54.926;73.496;2023-03-23T13:56:35;32.05;;;21.90;;
59907;SDS011;61804;54.926;73.496;2023-03-23T13:59:15;26.95;;;21.35;;
59907;SDS011;61804;54.926;73.496;2023-03-23T14:01:53;45.20;;;31.98;;
59907;SDS011;61804;54.926;73.496;2023-03-23T14:04:22;27.92;;;22.60;;
59907;SDS011;61804;54.926;73.496;2023-03-23T14:06:52;47.90;;;31.77;;
59907;SDS011;61804;54.926;73.496;2023-03-23T14:09:33;34.28;;;26.05;;
59907;SDS011;61804;54.926;73.496;2023-03-23T14:12:04;25.20;;;18.35;;
59907;SDS011;61804;54.926;73.496;2023-03-23T14:14:46;20.40;;;14.65;;
59907;SDS011;61804;54.926;73.496;2023-03-23T14:17:26;33.58;;;20.48;;
59907;SDS011;61804;54.926;73.496;2023-03-23T14:19:56;30.98;;;19.10;;
59907;SDS011;61804;54.926;73.496;2023-03-23T14:22:35;31.65;;;21.00;;
59907;SDS011;61804;54.926;73.496;2023-03-23T14:27:36;34.65;;;25.40;;
59907;SDS011;61804;54.926;73.496;2023-03-23T14:30:14;55.30;;;35.17;;
59907;SDS011;61804;54.926;73.496;2023-03-23T14:32:43;53.45;;;33.67;;
59907;SDS011;61804;54.926;73.496;2023-03-23T14:35:14;46.60;;;28.15;;
59907;SDS011;61804;54.926;73.496;2023-03-23T14:37:46;59.28;;;38.72;;
59907;SDS011;61804;54.926;73.496;2023-03-23T14:40:15;54.55;;;41.17;;
59907;SDS011;61804;54.926;73.496;2023-03-23T14:42:43;53.28;;;32.83;;
59907;SDS011;61804;54.926;73.496;2023-03-23T14:45:16;45.75;;;31.10;;
59907;SDS011;61804;54.926;73.496;2023-03-23T14:47:45;65.70;;;44.20;;
59907;SDS011;61804;54.926;73.496;2023-03-23T14:55:50;83.20;;;51.03;;
59907;SDS011;61804;54.926;73.496;2023-03-23T14:58:20;97.82;;;53.38;;
59907;SDS011;61804;54.926;73.496;2023-03-23T15:00:59;84.55;;;49.17;;
59907;SDS011;61804;54.926;73.496;2023-03-23T15:03:31;80.13;;;53.97;;
59907;SDS011;61804;54.926;73.496;2023-03-23T15:06:04;81.18;;;54.55;;
59907;SDS011;61804;54.926;73.496;2023-03-23T15:08:35;99.40;;;53.47;;
59907;SDS011;61804;54.926;73.496;2023-03-23T15:13:37;66.20;;;42.42;;
59907;SDS011;61804;54.926;73.496;2023-03-23T15:16:21;57.10;;;33.88;;
59907;SDS011;61804;54.926;73.496;2023-03-23T15:19:04;61.92;;;40.25;;
59907;SDS011;61804;54.926;73.496;2023-03-23T15:21:34;68.43;;;41.35;;
59907;SDS011;61804;54.926;73.496;2023-03-23T15:24:18;58.75;;;37.38;;
59907;SDS011;61804;54.926;73.496;2023-03-23T15:26:49;48.25;;;33.03;;
59907;SDS011;61804;54.926;73.496;2023-03-23T15:29:22;44.97;;;34.33;;
59907;SDS011;61804;54.926;73.496;2023-03-23T15:31:52;43.00;;;30.20;;
59907;SDS011;61804;54.926;73.496;2023-03-23T15:34:34;29.40;;;24.23;;
59907;SDS011;61804;54.926;73.496;2023-03-23T15:39:39;23.85;;;18.60;;
59907;SDS011;61804;54.926;73.496;2023-03-23T15:42:23;20.77;;;18.63;;
59907;SDS011;61804;54.926;73.496;2023-03-23T15:45:34;26.52;;;18.20;;
59907;SDS011;61804;54.926;73.496;2023-03-23T15:50:17;24.15;;;17.30;;
59907;SDS011;61804;54.926;73.496;2023-03-23T15:52:46;20.10;;;15.07;;
59907;SDS011;61804;54.926;73.496;2023-03-23T15:55:29;24.60;;;16.27;;
59907;SDS011;61804;54.926;73.496;2023-03-23T15:58:07;27.02;;;20.10;;
59907;SDS011;61804;54.926;73.496;2023-03-23T16:00:36;25.15;;;18.08;;
59907;SDS011;61804;54.926;73.496;2023-03-23T16:03:11;29.55;;;22.75;;
59907;SDS011;61804;54.926;73.496;2023-03-23T16:05:39;31.35;;;21.35;;
59907;SDS011;61804;54.926;73.496;2023-03-23T16:08:09;33.90;;;25.85;;
59907;SDS011;61804;54.926;73.496;2023-03-23T16:10:37;29.23;;;25.25;;
59907;SDS011;61804;54.926;73.496;2023-03-23T16:13:05;34.10;;;26.02;;
59907;SDS011;61804;54.926;73.496;2023-03-23T16:15:36;32.33;;;25.38;;
59907;SDS011;61804;54.926;73.496;2023-03-23T16:18:03;28.77;;;22.10;;
59907;SDS011;61804;54.926;73.496;2023-03-23T16:20:35;30.73;;;24.58;;
59907;SDS011;61804;54.926;73.496;2023-03-23T16:23:03;28.38;;;21.70;;
59907;SDS011;61804;54.926;73.496;2023-03-23T16:25:31;24.27;;;19.17;;
59907;SDS011;61804;54.926;73.496;2023-03-23T16:28:05;20.80;;;17.63;;
59907;SDS011;61804;54.926;73.496;2023-03-23T16:30:34;29.27;;;21.88;;
59907;SDS011;61804;54.926;73.496;2023-03-23T16:33:02;29.88;;;22.95;;
59907;SDS011;61804;54.926;73.496;2023-03-23T16:35:30;32.53;;;26.10;;
59907;SDS011;61804;54.926;73.496;2023-03-23T16:37:58;46.60;;;33.78;;
59907;SDS011;61804;54.926;73.496;2023-03-23T16:40:26;46.00;;;33.92;;
59907;SDS011;61804;54.926;73.496;2023-03-23T16:42:53;42.67;;;32.08;;
59907;SDS011;61804;54.926;73.496;2023-03-23T16:45:21;33.65;;;30.00;;
59907;SDS011;61804;54.926;73.496;2023-03-23T16:47:49;52.20;;;33.55;;
59907;SDS011;61804;54.926;73.496;2023-03-23T16:50:18;44.65;;;36.83;;